createdAt,value
2023-04-13T00:01:34.929Z,0.23
2023-04-13T00:04:06.943Z,0.17
2023-04-13T00:06:39.018Z,0.20
2023-04-13T00:09:10.756Z,0.20
2023-04-13T00:11:42.452Z,0.20
2023-04-13T00:14:14.168Z,0.23
2023-04-13T00:16:47.184Z,0.03
2023-04-13T00:19:19.088Z,0.30
2023-04-13T00:21:52.725Z,0.40
2023-04-13T00:24:24.419Z,0.20
2023-04-13T00:26:57.157Z,0.10
2023-04-13T00:29:28.866Z,0.03
2023-04-13T00:32:01.277Z,0.00
2023-04-13T00:34:33.013Z,0.20
2023-04-13T00:37:07.036Z,0.20
2023-04-13T00:39:38.800Z,0.10
2023-04-13T00:42:10.493Z,0.20
2023-04-13T00:44:42.790Z,0.20
2023-04-13T00:47:17.567Z,0.10
2023-04-13T00:49:49.461Z,0.07
2023-04-13T00:52:21.815Z,0.00
2023-04-13T00:54:56.346Z,0.10
2023-04-13T00:57:28.540Z,0.10
2023-04-13T01:00:01.518Z,0.00
2023-04-13T01:02:36.299Z,0.00
2023-04-13T01:05:09.035Z,0.20
2023-04-13T01:07:55.916Z,0.10
2023-04-13T01:10:36.667Z,0.07
2023-04-13T01:13:17.775Z,0.10
2023-04-13T01:16:18.214Z,0.20
2023-04-13T01:18:53.554Z,0.10
2023-04-13T01:21:29.096Z,0.10
2023-04-13T01:24:24.214Z,0.60
2023-04-13T01:27:05.496Z,0.10
2023-04-13T01:29:38.982Z,0.20
2023-04-13T01:32:11.658Z,0.10
2023-04-13T01:34:45.376Z,0.00
2023-04-13T01:37:17.751Z,0.10
2023-04-13T01:39:50.780Z,0.10
2023-04-13T01:42:43.845Z,0.10
2023-04-13T01:45:20.348Z,0.10
2023-04-13T01:48:14.658Z,0.10
2023-04-13T01:51:16.671Z,0.00
2023-04-13T01:54:04.721Z,0.00
2023-04-13T01:56:37.871Z,0.10
2023-04-13T01:59:10.932Z,0.10
2023-04-13T02:01:44.245Z,0.10
2023-04-13T02:04:16.532Z,0.53
2023-04-13T02:06:51.542Z,0.10
2023-04-13T02:09:28.482Z,0.17
2023-04-13T02:12:00.233Z,0.07
2023-04-13T02:14:32.028Z,0.13
2023-04-13T02:17:03.880Z,0.30
2023-04-13T02:19:35.595Z,0.00
2023-04-13T02:22:08.553Z,0.20
2023-04-13T02:24:40.475Z,0.10
2023-04-13T02:27:12.401Z,0.00
2023-04-13T02:29:44.660Z,0.10
2023-04-13T02:32:16.488Z,0.10
2023-04-13T02:34:48.290Z,0.17
2023-04-13T02:37:20.952Z,0.03
2023-04-13T02:39:52.768Z,0.10
2023-04-13T02:42:27.143Z,0.00
2023-04-13T02:44:58.923Z,0.00
2023-04-13T02:47:30.731Z,0.10
2023-04-13T02:50:03.535Z,0.20
2023-04-13T02:52:43.950Z,0.20
2023-04-13T02:55:16.557Z,0.10
2023-04-13T02:57:54.606Z,0.07
2023-04-13T03:00:28.637Z,0.10
2023-04-13T03:03:04.762Z,0.10
2023-04-13T03:05:42.853Z,0.10
2023-04-13T03:08:18.862Z,0.10
2023-04-13T03:11:12.177Z,0.13
2023-04-13T03:13:50.210Z,0.10
2023-04-13T03:16:22.210Z,0.10
2023-04-13T03:18:54.563Z,0.10
2023-04-13T03:21:26.391Z,0.20
2023-04-13T03:24:09.416Z,0.20
2023-04-13T03:26:41.894Z,0.10
2023-04-13T03:29:18.852Z,0.00
2023-04-13T03:31:51.450Z,0.10
2023-04-13T03:34:23.318Z,0.20
2023-04-13T03:36:55.688Z,0.10
2023-04-13T03:39:27.665Z,0.10
2023-04-13T03:41:59.391Z,0.00
2023-04-13T03:44:31.789Z,0.20
2023-04-13T03:47:04.437Z,0.20
2023-04-13T03:49:40.176Z,0.20
2023-04-13T03:52:12.026Z,0.10
2023-04-13T03:54:47.908Z,0.20
2023-04-13T03:57:22.635Z,0.10
2023-04-13T03:59:55.312Z,0.10
2023-04-13T04:02:34.932Z,0.20
2023-04-13T04:05:07.015Z,0.10
2023-04-13T04:07:39.697Z,0.30
2023-04-13T04:10:12.202Z,0.07
2023-04-13T04:12:44.091Z,0.20
2023-04-13T04:15:16.030Z,0.10
2023-04-13T04:17:49.359Z,0.50
2023-04-13T04:20:21.186Z,0.20
2023-04-13T04:22:53.408Z,0.10
2023-04-13T04:25:27.490Z,0.10
2023-04-13T04:28:02.435Z,0.20
2023-04-13T04:30:35.030Z,0.13
2023-04-13T04:33:08.637Z,0.13
2023-04-13T04:35:51.505Z,0.10
2023-04-13T04:38:27.973Z,0.10
2023-04-13T04:41:02.017Z,0.20
2023-04-13T04:43:35.622Z,0.10
2023-04-13T04:46:08.907Z,0.10
2023-04-13T04:48:47.573Z,0.30
2023-04-13T04:51:25.136Z,0.13
2023-04-13T04:53:58.755Z,0.10
2023-04-13T04:56:30.890Z,0.13
2023-04-13T04:59:02.764Z,0.10
2023-04-13T05:01:49.482Z,0.10
2023-04-13T05:04:21.295Z,0.40
2023-04-13T05:06:53.674Z,0.20
2023-04-13T05:09:28.721Z,0.20
2023-04-13T05:12:02.122Z,0.27
2023-04-13T05:14:34.916Z,0.10
2023-04-13T05:17:07.321Z,0.30
2023-04-13T05:19:42.950Z,0.30
2023-04-13T05:22:28.265Z,0.33
2023-04-13T05:25:06.729Z,0.30
2023-04-13T05:27:38.477Z,0.20
2023-04-13T05:30:10.499Z,0.30
2023-04-13T05:32:44.733Z,0.37
2023-04-13T05:35:16.890Z,0.30
2023-04-13T05:37:49.008Z,0.43
2023-04-13T05:40:27.616Z,0.53
2023-04-13T05:42:59.350Z,0.30
2023-04-13T05:45:35.020Z,0.30
2023-04-13T05:48:10.948Z,0.40
2023-04-13T05:50:43.628Z,0.40
2023-04-13T05:53:16.580Z,0.30
2023-04-13T05:55:52.681Z,0.40
2023-04-13T05:58:26.286Z,0.40
2023-04-13T06:01:10.932Z,0.50
2023-04-13T06:03:43.438Z,0.30
2023-04-13T06:06:17.421Z,0.53
2023-04-13T06:08:49.529Z,0.50
2023-04-13T06:11:21.566Z,0.33
2023-04-13T06:13:53.335Z,0.40
2023-04-13T06:16:25.494Z,0.60
2023-04-13T06:18:57.422Z,0.43
2023-04-13T06:21:30.313Z,0.50
2023-04-13T06:24:02.069Z,0.30
2023-04-13T06:26:39.253Z,0.30
2023-04-13T06:29:11.209Z,0.40
2023-04-13T06:31:57.477Z,0.33
2023-04-13T06:34:29.522Z,0.40
2023-04-13T06:37:02.313Z,0.47
2023-04-13T06:39:38.282Z,0.40
2023-04-13T06:42:12.251Z,0.20
2023-04-13T06:44:52.978Z,0.30
2023-04-13T06:47:25.562Z,0.53
2023-04-13T06:50:01.320Z,0.40
2023-04-13T06:52:34.571Z,0.30
2023-04-13T06:55:07.110Z,0.30
2023-04-13T06:57:44.807Z,0.40
2023-04-13T07:00:28.810Z,0.10
2023-04-13T07:03:02.146Z,0.20
2023-04-13T07:05:34.472Z,0.30
2023-04-13T07:08:12.252Z,0.20
2023-04-13T07:10:47.047Z,0.40
2023-04-13T07:13:27.037Z,0.40
2023-04-13T07:16:00.212Z,0.30
2023-04-13T07:18:32.480Z,0.30
2023-04-13T07:21:05.175Z,0.20
2023-04-13T07:23:46.266Z,0.10
2023-04-13T07:26:18.559Z,0.20
2023-04-13T07:28:50.639Z,0.13
2023-04-13T07:31:23.456Z,0.17
2023-04-13T07:33:57.241Z,0.13
2023-04-13T07:36:36.766Z,0.30
2023-04-13T07:39:13.610Z,0.20
2023-04-13T07:41:49.781Z,0.00
2023-04-13T07:44:27.905Z,0.30
2023-04-13T07:46:59.834Z,0.17
2023-04-13T07:49:36.244Z,0.23
2023-04-13T07:52:12.172Z,0.13
2023-04-13T07:54:45.282Z,0.20
2023-04-13T07:57:21.465Z,0.20
2023-04-13T07:59:59.542Z,0.10
2023-04-13T08:02:31.690Z,0.27
2023-04-13T08:05:05.100Z,0.30
2023-04-13T08:07:37.074Z,0.30
2023-04-13T08:10:09.417Z,0.40
2023-04-13T08:12:41.285Z,0.30
2023-04-13T08:15:13.265Z,0.40
2023-04-13T08:17:45.449Z,0.40
2023-04-13T08:20:17.302Z,0.20
2023-04-13T08:22:49.182Z,0.30
2023-04-13T08:25:20.881Z,0.27
2023-04-13T08:27:52.838Z,0.20
2023-04-13T08:30:24.668Z,0.37
2023-04-13T08:33:03.097Z,0.30
2023-04-13T08:35:39.066Z,0.80
2023-04-13T08:38:13.967Z,0.40
2023-04-13T08:40:52.140Z,0.30
2023-04-13T08:43:37.973Z,0.50
2023-04-13T08:46:11.671Z,0.47
2023-04-13T08:48:53.554Z,0.90
2023-04-13T08:51:33.982Z,0.40
2023-04-13T08:54:07.009Z,0.30
2023-04-13T08:56:46.940Z,0.20
2023-04-13T08:59:25.601Z,0.37
2023-04-13T09:02:01.745Z,0.40
2023-04-13T09:04:42.291Z,0.73
2023-04-13T09:07:21.946Z,0.20
2023-04-13T09:09:58.076Z,0.20
2023-04-13T09:12:33.605Z,0.30
2023-04-13T09:15:06.279Z,0.30
2023-04-13T09:17:43.149Z,0.33
2023-04-13T09:20:32.886Z,0.30
2023-04-13T09:23:16.098Z,0.40
2023-04-13T09:25:47.889Z,0.03
2023-04-13T09:28:19.855Z,0.30
2023-04-13T09:31:02.305Z,0.33
2023-04-13T09:33:47.350Z,0.40
2023-04-13T09:36:21.664Z,0.30
2023-04-13T09:38:55.551Z,0.20
2023-04-13T09:41:31.865Z,0.50
2023-04-13T09:44:34.656Z,0.30
2023-04-13T09:47:09.590Z,0.30
2023-04-13T09:49:42.983Z,0.20
2023-04-13T09:52:24.130Z,0.40
2023-04-13T09:54:59.859Z,0.33
2023-04-13T09:57:32.592Z,0.30
2023-04-13T10:00:10.653Z,0.20
2023-04-13T10:02:47.909Z,0.40
2023-04-13T10:05:20.114Z,0.40
2023-04-13T10:07:51.864Z,0.30
2023-04-13T10:10:26.387Z,0.10
2023-04-13T10:13:01.569Z,0.20
2023-04-13T10:15:36.733Z,0.20
2023-04-13T10:18:47.221Z,0.30
2023-04-13T10:21:19.391Z,0.30
2023-04-13T10:23:51.576Z,0.20
2023-04-13T10:26:33.676Z,0.40
2023-04-13T10:29:06.549Z,0.30
2023-04-13T10:31:46.543Z,0.50
2023-04-13T10:34:27.245Z,0.30
2023-04-13T10:37:03.671Z,0.30
2023-04-13T10:39:36.198Z,0.60
2023-04-13T10:42:09.904Z,0.30
2023-04-13T10:44:41.892Z,0.30
2023-04-13T10:47:15.430Z,0.30
2023-04-13T10:49:48.740Z,0.33
2023-04-13T10:52:20.564Z,0.30
2023-04-13T10:54:52.890Z,0.40
2023-04-13T10:57:24.932Z,0.43
2023-04-13T10:59:58.900Z,0.30
2023-04-13T11:02:32.912Z,0.40
2023-04-13T11:05:05.272Z,0.27
2023-04-13T11:07:39.026Z,0.27
2023-04-13T11:10:11.363Z,0.27
2023-04-13T11:12:51.837Z,0.50
2023-04-13T11:15:29.191Z,0.33
2023-04-13T11:18:02.278Z,0.30
2023-04-13T11:20:39.230Z,0.40
2023-04-13T11:23:18.894Z,0.33
2023-04-13T11:26:01.146Z,0.30
2023-04-13T11:28:43.663Z,0.40
2023-04-13T11:31:15.505Z,0.40
2023-04-13T11:33:49.177Z,0.50
2023-04-13T11:36:23.654Z,0.77
2023-04-13T11:38:55.547Z,0.40
2023-04-13T11:41:28.909Z,0.60
2023-04-13T11:44:02.259Z,0.63
2023-04-13T11:46:34.522Z,0.40
2023-04-13T11:49:06.607Z,0.70
2023-04-13T11:51:38.907Z,0.63
2023-04-13T11:54:11.316Z,0.50
2023-04-13T11:56:43.493Z,1.17
2023-04-13T11:59:15.373Z,0.70
2023-04-13T12:01:58.110Z,0.50
2023-04-13T12:04:41.039Z,0.63
2023-04-13T12:07:14.472Z,0.57
2023-04-13T12:17:41.440Z,0.50
2023-04-13T12:20:20.784Z,0.47
2023-04-13T12:23:00.232Z,0.70
2023-04-13T12:25:41.924Z,0.43
2023-04-13T12:28:13.881Z,0.53
2023-04-13T12:30:47.035Z,0.67
2023-04-13T12:33:18.733Z,0.70
2023-04-13T12:35:50.913Z,0.83
2023-04-13T12:38:24.137Z,0.67
2023-04-13T12:40:57.208Z,0.50
2023-04-13T12:43:29.266Z,0.50
2023-04-13T12:46:01.086Z,0.40
2023-04-13T12:48:32.826Z,0.60
2023-04-13T12:51:04.807Z,0.40
2023-04-13T12:53:36.524Z,0.50
2023-04-13T12:56:08.588Z,0.60
2023-04-13T12:58:40.352Z,0.60
2023-04-13T13:01:13.932Z,0.50
2023-04-13T13:03:46.205Z,0.60
2023-04-13T13:06:18.050Z,0.50
2023-04-13T13:08:51.225Z,0.60
2023-04-13T13:11:23.095Z,0.60
2023-04-13T13:13:54.878Z,0.20
2023-04-13T13:16:26.953Z,0.60
2023-04-13T13:18:58.650Z,0.57
2023-04-13T13:21:31.323Z,0.50
2023-04-13T13:24:03.132Z,0.40
2023-04-13T13:26:51.781Z,0.70
2023-04-13T13:29:28.611Z,0.40
2023-04-13T13:32:00.527Z,0.40
2023-04-13T13:34:32.534Z,0.50
2023-04-13T13:37:04.678Z,0.53
2023-04-13T13:39:38.160Z,0.50
2023-04-13T13:42:09.883Z,0.40
2023-04-13T13:44:41.696Z,0.30
2023-04-13T13:47:13.680Z,0.50
2023-04-13T13:49:48.758Z,0.20
2023-04-13T13:53:03.236Z,0.30
2023-04-13T13:55:41.508Z,0.43
2023-04-13T13:58:13.219Z,0.50
2023-04-13T14:00:44.979Z,0.50
2023-04-13T14:03:17.398Z,0.47
2023-04-13T14:05:49.278Z,0.60
2023-04-13T14:08:20.995Z,0.63
2023-04-13T14:10:52.818Z,0.50
2023-04-13T14:13:24.569Z,0.53
2023-04-13T14:15:56.702Z,0.50
2023-04-13T14:18:28.572Z,0.40
2023-04-13T14:21:00.510Z,0.57
2023-04-13T14:23:32.594Z,0.70
2023-04-13T14:26:04.468Z,0.53
2023-04-13T14:28:36.825Z,0.40
2023-04-13T14:31:08.617Z,0.40
2023-04-13T14:33:42.127Z,0.47
2023-04-13T14:36:15.313Z,0.50
2023-04-13T14:38:47.324Z,0.63
2023-04-13T14:41:19.288Z,0.53
2023-04-13T14:43:51.055Z,0.73
2023-04-13T14:46:22.782Z,0.60
2023-04-13T14:48:54.545Z,0.60
2023-04-13T14:51:28.895Z,0.50
2023-04-13T14:54:00.783Z,0.40
2023-04-13T14:56:32.502Z,0.73
2023-04-13T14:59:04.270Z,0.47
2023-04-13T15:01:36.095Z,0.47
2023-04-13T15:04:08.345Z,0.50
2023-04-13T15:06:40.183Z,0.40
2023-04-13T15:09:13.061Z,0.70
2023-04-13T15:11:44.862Z,0.57
2023-04-13T15:14:16.660Z,0.63
2023-04-13T15:16:48.546Z,0.50
2023-04-13T15:19:20.658Z,0.50
2023-04-13T15:21:52.371Z,0.80
2023-04-13T15:24:24.117Z,0.67
2023-04-13T15:26:55.835Z,0.77
2023-04-13T15:29:27.550Z,0.80
2023-04-13T15:32:00.213Z,0.70
2023-04-13T15:34:32.036Z,0.73
2023-04-13T15:37:03.742Z,0.80
2023-04-13T15:39:35.472Z,0.90
2023-04-13T15:42:07.220Z,1.07
2023-04-13T15:44:38.935Z,0.70
2023-04-13T15:47:10.727Z,0.47
2023-04-13T15:49:42.547Z,0.50
2023-04-13T15:52:14.268Z,0.93
2023-04-13T15:54:46.177Z,0.80
2023-04-13T15:57:17.859Z,0.90
2023-04-13T15:59:49.541Z,0.67
2023-04-13T16:02:21.381Z,0.57
2023-04-13T16:04:53.992Z,0.57
2023-04-13T16:07:26.029Z,0.90
2023-04-13T16:09:58.528Z,0.80
2023-04-13T16:12:34.744Z,0.90
2023-04-13T16:15:06.901Z,0.50
2023-04-13T16:17:43.549Z,0.70
2023-04-13T16:20:15.624Z,0.63
2023-04-13T16:22:49.424Z,0.33
2023-04-13T16:25:21.299Z,0.57
2023-04-13T16:27:54.906Z,0.60
2023-04-13T16:30:27.936Z,0.20
2023-04-13T16:32:59.665Z,0.50
2023-04-13T16:35:31.365Z,0.70
2023-04-13T16:38:03.192Z,0.70
2023-04-13T16:40:34.894Z,0.57
2023-04-13T16:43:06.625Z,0.53
2023-04-13T16:45:38.335Z,0.50
2023-04-13T16:48:10.062Z,0.50
2023-04-13T16:50:41.808Z,0.70
2023-04-13T16:53:13.689Z,0.70
2023-04-13T16:55:50.853Z,0.40
2023-04-13T16:58:23.141Z,0.60
2023-04-13T17:00:54.875Z,0.40
2023-04-13T17:03:27.770Z,0.67
2023-04-13T17:05:59.636Z,0.80
2023-04-13T17:08:31.945Z,0.50
2023-04-13T17:11:07.025Z,0.70
2023-04-13T17:13:38.753Z,0.90
2023-04-13T17:16:10.906Z,0.70
2023-04-13T17:18:42.773Z,0.80
2023-04-13T17:21:14.497Z,0.60
2023-04-13T17:23:47.771Z,0.90
2023-04-13T17:26:19.540Z,0.60
2023-04-13T17:28:51.258Z,0.30
2023-04-13T17:31:23.137Z,0.47
2023-04-13T17:33:54.865Z,0.60
2023-04-13T17:36:27.391Z,0.60
2023-04-13T17:38:59.673Z,0.70
2023-04-13T17:41:31.547Z,1.00
2023-04-13T17:44:03.360Z,0.87
2023-04-13T17:46:35.071Z,0.87
2023-04-13T17:49:07.073Z,0.83
2023-04-13T17:51:38.766Z,1.30
2023-04-13T17:54:11.244Z,0.90
2023-04-13T17:56:42.998Z,0.60
2023-04-13T17:59:14.891Z,0.80
2023-04-13T18:01:47.067Z,1.07
2023-04-13T18:04:19.223Z,0.80
2023-04-13T18:06:51.806Z,1.17
2023-04-13T18:09:24.851Z,1.20
2023-04-13T18:11:56.708Z,1.20
2023-04-13T18:14:28.382Z,1.30
2023-04-13T18:17:00.071Z,1.10
2023-04-13T18:19:32.558Z,1.40
2023-04-13T18:22:04.266Z,1.00
2023-04-13T18:24:36.354Z,1.27
2023-04-13T18:27:08.057Z,1.23
2023-04-13T18:29:39.740Z,1.30
2023-04-13T18:32:11.535Z,1.37
2023-04-13T18:34:44.154Z,1.20
2023-04-13T18:37:15.984Z,1.23
2023-04-13T18:39:47.668Z,1.30
2023-04-13T18:42:19.366Z,1.70
2023-04-13T18:44:51.051Z,1.37
2023-04-13T18:47:24.086Z,1.57
2023-04-13T18:49:57.427Z,1.57
2023-04-13T18:52:29.866Z,1.57
2023-04-13T18:55:01.589Z,1.50
2023-04-13T18:57:34.044Z,1.73
2023-04-13T19:00:07.055Z,2.10
2023-04-13T19:02:40.533Z,1.57
2023-04-13T19:05:13.592Z,1.47
2023-04-13T19:07:59.586Z,1.20
2023-04-13T19:10:31.665Z,1.40
2023-04-13T19:13:03.496Z,1.43
2023-04-13T19:15:35.839Z,1.80
2023-04-13T19:18:08.011Z,1.40
2023-04-13T19:20:39.744Z,1.40
2023-04-13T19:23:11.786Z,1.70
2023-04-13T19:25:43.471Z,1.37
2023-04-13T19:28:15.517Z,1.53
2023-04-13T19:30:47.248Z,1.20
2023-04-13T19:33:19.415Z,1.30
2023-04-13T19:35:52.421Z,1.50
2023-04-13T19:38:24.162Z,1.80
2023-04-13T19:40:57.644Z,1.63
2023-04-13T19:43:29.401Z,1.73
2023-04-13T19:46:01.260Z,2.40
2023-04-13T19:48:33.024Z,2.30
2023-04-13T19:51:04.943Z,1.90
2023-04-13T19:53:38.276Z,1.50
2023-04-13T19:56:10.420Z,1.00
2023-04-13T19:58:42.140Z,0.90
2023-04-13T20:01:13.896Z,1.40
2023-04-13T20:03:45.818Z,2.70
2023-04-13T20:06:18.915Z,2.50
2023-04-13T20:08:50.740Z,2.17
2023-04-13T20:11:22.536Z,2.37
2023-04-13T20:13:54.238Z,2.10
2023-04-13T20:16:26.963Z,1.90
2023-04-13T20:18:58.968Z,2.67
2023-04-13T20:21:31.130Z,3.37
2023-04-13T20:24:03.372Z,4.40
2023-04-13T20:26:35.105Z,3.30
2023-04-13T20:29:06.813Z,3.20
2023-04-13T20:31:38.618Z,1.90
2023-04-13T20:34:13.373Z,2.30
2023-04-13T20:36:46.505Z,1.90
2023-04-13T20:39:21.914Z,2.07
2023-04-13T20:41:56.979Z,2.20
2023-04-13T20:44:29.216Z,2.40
2023-04-13T20:47:02.070Z,1.60
2023-04-13T20:49:34.356Z,1.70
2023-04-13T20:52:07.188Z,1.50
2023-04-13T20:54:38.879Z,1.43
2023-04-13T20:57:10.711Z,1.60
2023-04-13T20:59:42.539Z,1.33
2023-04-13T21:02:17.769Z,1.47
2023-04-13T21:04:49.544Z,1.67
2023-04-13T21:07:22.683Z,2.07
2023-04-13T21:09:54.350Z,1.73
2023-04-13T21:12:26.703Z,1.80
2023-04-13T21:14:58.416Z,1.90
2023-04-13T21:17:33.281Z,1.93
2023-04-13T21:20:08.679Z,2.33
2023-04-13T21:22:40.421Z,1.87
2023-04-13T21:25:12.123Z,2.27
2023-04-13T21:27:43.818Z,1.53
2023-04-13T21:30:15.545Z,1.77
2023-04-13T21:32:47.324Z,2.23
2023-04-13T21:35:19.433Z,1.63
2023-04-13T21:37:51.161Z,1.53
2023-04-13T21:40:24.613Z,1.33
2023-04-13T21:42:56.312Z,1.77
2023-04-13T21:45:28.031Z,1.33
2023-04-13T21:47:59.803Z,1.57
2023-04-13T21:50:31.497Z,1.50
2023-04-13T21:53:03.206Z,1.60
2023-04-13T21:55:34.918Z,1.57
2023-04-13T21:58:06.610Z,1.77
2023-04-13T22:00:38.347Z,1.90
2023-04-13T22:03:13.145Z,1.57
2023-04-13T22:05:44.996Z,1.47
2023-04-13T22:08:16.749Z,1.50
2023-04-13T22:10:48.428Z,1.60
2023-04-13T22:13:20.308Z,1.40
2023-04-13T22:15:52.070Z,2.00
2023-04-13T22:18:24.347Z,1.20
2023-04-13T22:20:57.903Z,1.50
2023-04-13T22:23:29.894Z,1.80
2023-04-13T22:26:01.794Z,1.50
2023-04-13T22:28:33.655Z,1.80
2023-04-13T22:31:07.433Z,1.67
2023-04-13T22:33:40.380Z,1.60
2023-04-13T22:36:19.784Z,2.47
2023-04-13T22:38:52.001Z,1.73
2023-04-13T22:41:23.711Z,1.87
2023-04-13T22:43:55.686Z,1.83
2023-04-13T22:46:27.424Z,1.83
2023-04-13T22:48:59.245Z,2.00
2023-04-13T22:51:38.224Z,2.00
2023-04-13T22:54:09.947Z,1.80
2023-04-13T22:56:41.671Z,1.50
2023-04-13T22:59:13.356Z,1.80
2023-04-13T23:01:45.234Z,1.40
2023-04-13T23:04:17.109Z,1.93
2023-04-13T23:06:49.936Z,1.77
2023-04-13T23:09:21.847Z,1.63
2023-04-13T23:11:53.522Z,1.60
2023-04-13T23:14:25.224Z,1.67
2023-04-13T23:16:58.128Z,1.37
2023-04-13T23:19:29.886Z,1.60
2023-04-13T23:22:01.606Z,1.17
2023-04-13T23:24:33.326Z,1.40
2023-04-13T23:27:05.020Z,1.60
2023-04-13T23:29:36.871Z,1.50
2023-04-13T23:32:08.777Z,1.63
2023-04-13T23:34:40.692Z,1.30
2023-04-13T23:37:12.379Z,1.30
2023-04-13T23:39:44.153Z,1.70
2023-04-13T23:42:15.849Z,1.67
2023-04-13T23:44:47.868Z,1.40
2023-04-13T23:47:19.575Z,1.50
2023-04-13T23:49:51.542Z,1.50
2023-04-13T23:52:23.226Z,1.67
2023-04-13T23:54:55.097Z,1.40
2023-04-13T23:57:26.758Z,1.40
2023-04-13T23:59:58.475Z,1.80
